createdAt,value
2018-04-19T00:01:27.158Z,52.70
2018-04-19T00:03:55.507Z,53.08
2018-04-19T00:06:23.878Z,53.41
2018-04-19T00:08:52.577Z,53.25
2018-04-19T00:11:21.098Z,52.76
2018-04-19T00:13:49.476Z,52.77
2018-04-19T00:16:17.928Z,53.36
2018-04-19T00:18:46.309Z,52.93
2018-04-19T00:21:14.686Z,52.84
2018-04-19T00:23:43.043Z,53.11
2018-04-19T00:26:11.410Z,53.39
2018-04-19T00:28:39.803Z,52.71
2018-04-19T00:31:08.160Z,53.29
2018-04-19T00:33:36.582Z,54.14
2018-04-19T00:36:04.976Z,53.00
2018-04-19T00:38:33.588Z,53.32
2018-04-19T00:41:01.949Z,52.75
2018-04-19T00:43:30.321Z,53.51
2018-04-19T00:45:58.734Z,53.79
2018-04-19T00:48:27.097Z,52.25
2018-04-19T00:50:55.459Z,52.89
2018-04-19T00:53:23.809Z,52.16
2018-04-19T00:55:52.266Z,52.51
2018-04-19T00:58:20.634Z,51.63
2018-04-19T01:00:48.995Z,52.27
2018-04-19T01:03:17.516Z,52.75
2018-04-19T01:05:45.869Z,52.48
2018-04-19T01:08:14.227Z,52.28
2018-04-19T01:10:42.657Z,52.19
2018-04-19T01:13:11.006Z,51.88
2018-04-19T01:15:39.374Z,53.87
2018-04-19T01:18:07.736Z,52.82
2018-04-19T01:20:36.152Z,52.82
2018-04-19T01:23:04.509Z,53.00
2018-04-19T01:25:32.877Z,52.58
2018-04-19T01:28:01.235Z,52.02
2018-04-19T01:30:29.592Z,52.24
2018-04-19T01:32:58.010Z,52.57
2018-04-19T01:35:39.171Z,54.20
2018-04-19T01:38:07.662Z,53.66
2018-04-19T01:40:36.074Z,53.28
2018-04-19T01:43:04.473Z,53.30
2018-04-19T01:45:32.857Z,54.15
2018-04-19T01:48:01.236Z,53.61
2018-04-19T01:50:29.686Z,53.22
2018-04-19T01:52:58.094Z,53.03
2018-04-19T01:55:26.557Z,54.58
2018-04-19T01:57:54.953Z,54.64
2018-04-19T02:00:23.360Z,54.65
2018-04-19T02:02:51.869Z,54.29
2018-04-19T02:05:20.273Z,54.92
2018-04-19T02:07:48.683Z,54.08
2018-04-19T02:10:17.052Z,55.82
2018-04-19T02:12:45.413Z,55.37
2018-04-19T02:15:13.837Z,57.45
2018-04-19T02:17:42.218Z,56.52
2018-04-19T02:20:10.591Z,55.99
2018-04-19T02:22:39.074Z,57.89
2018-04-19T02:25:07.477Z,58.20
2018-04-19T02:27:36.003Z,57.22
2018-04-19T02:30:04.375Z,57.95
2018-04-19T02:32:32.817Z,58.10
2018-04-19T02:35:01.252Z,57.37
2018-04-19T02:37:29.590Z,57.63
2018-04-19T02:39:58.018Z,56.69
2018-04-19T02:42:26.387Z,57.97
2018-04-19T02:44:54.843Z,57.78
2018-04-19T02:47:23.222Z,58.33
2018-04-19T02:49:51.605Z,57.02
2018-04-19T02:52:19.983Z,56.61
2018-04-19T02:54:48.610Z,57.68
2018-04-19T02:57:17.284Z,57.13
2018-04-19T02:59:45.695Z,58.21
2018-04-19T03:02:14.167Z,57.79
2018-04-19T03:04:42.554Z,57.50
2018-04-19T03:07:10.939Z,57.26
2018-04-19T03:09:39.334Z,58.17
2018-04-19T03:12:07.776Z,58.24
2018-04-19T03:14:36.189Z,57.63
2018-04-19T03:17:04.650Z,55.81
2018-04-19T03:19:33.049Z,55.67
2018-04-19T03:22:01.425Z,56.38
2018-04-19T03:24:29.825Z,58.04
2018-04-19T03:26:58.197Z,56.38
2018-04-19T03:29:26.669Z,55.78
2018-04-19T03:31:55.072Z,54.71
2018-04-19T03:34:23.480Z,55.90
2018-04-19T03:36:51.899Z,54.72
2018-04-19T03:39:20.305Z,55.43
2018-04-19T03:41:48.726Z,55.82
2018-04-19T03:44:17.159Z,55.18
2018-04-19T03:46:45.552Z,55.72
2018-04-19T03:49:13.950Z,56.05
2018-04-19T03:54:41.141Z,56.09
2018-04-19T04:00:08.451Z,55.01
2018-04-19T04:02:38.961Z,56.05
2018-04-19T04:05:09.522Z,55.44
2018-04-19T04:07:42.652Z,55.16
2018-04-19T04:10:14.204Z,55.86
2018-04-19T04:12:44.179Z,56.42
2018-04-19T04:15:13.888Z,55.92
2018-04-19T04:17:54.643Z,56.76
2018-04-19T04:20:36.532Z,56.42
2018-04-19T04:23:45.161Z,55.43
2018-04-19T04:26:17.008Z,55.83
2018-04-19T04:28:46.354Z,55.31
2018-04-19T04:31:15.595Z,55.62
2018-04-19T04:33:44.762Z,55.24
2018-04-19T04:36:14.059Z,54.96
2018-04-19T04:38:43.665Z,54.88
2018-04-19T04:41:13.378Z,54.37
2018-04-19T04:43:43.403Z,54.71
2018-04-19T04:46:13.838Z,53.10
2018-04-19T04:48:44.266Z,50.87
2018-04-19T04:51:13.643Z,50.50
2018-04-19T04:53:43.206Z,49.85
2018-04-19T04:56:12.612Z,50.30
2018-04-19T04:58:44.044Z,51.50
2018-04-19T05:01:13.129Z,48.46
2018-04-19T05:03:42.566Z,48.89
2018-04-19T05:06:11.814Z,46.94
2018-04-19T05:08:40.393Z,46.77
2018-04-19T05:11:10.064Z,46.52
2018-04-19T05:13:40.672Z,45.15
2018-04-19T05:16:10.936Z,45.39
2018-04-19T05:18:40.506Z,44.63
2018-04-19T05:21:10.757Z,43.97
2018-04-19T05:23:42.395Z,43.55
2018-04-19T05:26:13.398Z,43.10
2018-04-19T05:28:43.325Z,42.87
2018-04-19T05:31:14.114Z,41.99
2018-04-19T05:33:43.201Z,41.01
2018-04-19T05:36:14.306Z,42.46
2018-04-19T05:38:45.067Z,41.90
2018-04-19T05:41:13.990Z,41.99
2018-04-19T05:43:43.040Z,42.28
2018-04-19T05:46:12.042Z,42.52
2018-04-19T05:48:41.274Z,42.03
2018-04-19T05:51:11.620Z,39.58
2018-04-19T05:53:40.938Z,39.27
2018-04-19T05:56:11.134Z,38.87
2018-04-19T05:58:40.666Z,39.43
2018-04-19T06:01:10.581Z,38.58
2018-04-19T06:03:40.751Z,37.20
2018-04-19T06:06:10.096Z,36.66
2018-04-19T06:08:39.903Z,37.02
2018-04-19T06:11:11.257Z,36.43
2018-04-19T06:13:41.841Z,31.68
2018-04-19T06:16:11.809Z,28.62
2018-04-19T06:18:41.847Z,27.30
2018-04-19T06:21:12.645Z,25.78
2018-04-19T06:23:42.359Z,23.81
2018-04-19T06:26:12.272Z,21.71
2018-04-19T06:28:42.222Z,20.78
2018-04-19T06:31:12.516Z,19.37
2018-04-19T06:33:42.537Z,19.59
2018-04-19T06:36:11.754Z,18.62
2018-04-19T06:38:41.158Z,17.28
2018-04-19T06:41:11.726Z,17.03
2018-04-19T06:43:41.420Z,17.49
2018-04-19T06:46:10.856Z,17.66
2018-04-19T06:48:40.533Z,17.10
2018-04-19T06:51:10.110Z,16.62
2018-04-19T06:53:39.803Z,16.53
2018-04-19T06:56:09.414Z,16.78
2018-04-19T06:58:39.284Z,16.17
2018-04-19T07:01:08.714Z,16.32
2018-04-19T07:03:38.593Z,16.61
2018-04-19T07:06:08.363Z,15.88
2018-04-19T07:08:38.299Z,16.29
2018-04-19T07:11:08.336Z,15.83
2018-04-19T07:13:37.947Z,15.75
2018-04-19T07:16:07.315Z,17.09
2018-04-19T07:18:36.165Z,15.26
2018-04-19T07:21:05.517Z,15.10
2018-04-19T07:23:34.322Z,14.58
2018-04-19T07:26:03.557Z,15.13
2018-04-19T07:28:32.240Z,16.01
2018-04-19T07:31:01.128Z,16.41
2018-04-19T07:33:29.905Z,15.40
2018-04-19T07:35:58.469Z,14.23
2018-04-19T07:38:26.883Z,14.24
2018-04-19T07:40:55.316Z,14.64
2018-04-19T07:43:23.831Z,15.53
2018-04-19T07:45:52.360Z,15.25
2018-04-19T07:48:21.220Z,15.18
2018-04-19T07:50:49.644Z,15.34
2018-04-19T07:53:18.650Z,14.90
2018-04-19T07:55:47.460Z,16.01
2018-04-19T07:58:17.265Z,14.02
2018-04-19T08:00:46.163Z,14.15
2018-04-19T08:03:15.284Z,13.74
2018-04-19T08:05:44.356Z,13.67
2018-04-19T08:08:13.451Z,13.19
2018-04-19T08:10:42.820Z,13.09
2018-04-19T08:13:12.363Z,13.05
2018-04-19T08:15:42.018Z,13.49
2018-04-19T08:18:11.898Z,14.15
2018-04-19T08:20:41.211Z,14.08
2018-04-19T08:23:10.925Z,13.82
2018-04-19T08:25:40.488Z,13.61
2018-04-19T08:28:11.019Z,13.41
2018-04-19T08:30:40.664Z,13.03
2018-04-19T08:33:10.551Z,12.50
2018-04-19T08:35:40.588Z,12.35
2018-04-19T08:38:10.373Z,12.85
2018-04-19T08:40:41.289Z,13.17
2018-04-19T08:43:10.918Z,13.51
2018-04-19T08:45:40.579Z,13.07
2018-04-19T08:48:10.581Z,13.13
2018-04-19T08:50:40.709Z,12.98
2018-04-19T08:53:12.865Z,13.52
2018-04-19T08:55:41.908Z,14.31
2018-04-19T08:58:11.279Z,13.09
2018-04-19T09:00:40.729Z,11.99
2018-04-19T09:03:10.695Z,12.14
2018-04-19T09:05:40.398Z,11.96
2018-04-19T09:08:10.613Z,11.84
2018-04-19T09:10:39.915Z,11.52
2018-04-19T09:13:10.673Z,11.50
2018-04-19T09:15:40.831Z,11.20
2018-04-19T09:18:11.213Z,11.48
2018-04-19T09:20:41.172Z,11.71
2018-04-19T09:23:11.223Z,12.61
2018-04-19T09:25:41.249Z,12.90
2018-04-19T09:28:11.935Z,12.08
2018-04-19T09:30:41.554Z,12.17
2018-04-19T09:33:12.703Z,11.98
2018-04-19T09:35:43.168Z,13.18
2018-04-19T09:38:13.064Z,14.14
2018-04-19T09:40:43.402Z,13.37
2018-04-19T09:43:13.245Z,14.07
2018-04-19T09:45:42.556Z,12.95
2018-04-19T09:48:12.746Z,12.16
2018-04-19T09:50:42.904Z,12.98
2018-04-19T09:53:12.992Z,12.81
2018-04-19T09:55:42.610Z,12.33
2018-04-19T09:58:13.039Z,13.23
2018-04-19T10:00:45.857Z,13.87
2018-04-19T10:03:19.526Z,12.06
2018-04-19T10:05:47.938Z,13.09
2018-04-19T10:08:17.387Z,14.03
2018-04-19T10:10:46.435Z,13.30
2018-04-19T10:13:15.746Z,12.25
2018-04-19T10:15:45.139Z,12.42
2018-04-19T10:18:14.535Z,12.54
2018-04-19T10:20:44.121Z,12.04
2018-04-19T10:23:13.329Z,12.71
2018-04-19T10:25:42.683Z,13.02
2018-04-19T10:28:11.883Z,12.75
2018-04-19T10:30:41.780Z,12.75
2018-04-19T10:33:12.476Z,13.20
2018-04-19T10:35:43.086Z,12.39
2018-04-19T10:38:12.670Z,11.86
2018-04-19T10:40:43.501Z,12.36
2018-04-19T10:43:13.064Z,10.78
2018-04-19T10:45:42.929Z,10.39
2018-04-19T10:48:14.687Z,12.30
2018-04-19T10:50:43.772Z,11.80
2018-04-19T10:53:13.948Z,11.60
2018-04-19T10:55:42.940Z,10.80
2018-04-19T10:58:12.182Z,11.44
2018-04-19T11:00:42.086Z,11.02
2018-04-19T11:03:12.115Z,9.66
2018-04-19T11:05:42.220Z,10.04
2018-04-19T11:08:12.824Z,10.20
2018-04-19T11:10:41.896Z,10.70
2018-04-19T11:13:12.324Z,10.47
2018-04-19T11:15:43.325Z,10.88
2018-04-19T11:18:13.557Z,10.56
2018-04-19T11:20:43.108Z,9.27
2018-04-19T11:23:12.863Z,9.22
2018-04-19T11:25:44.522Z,8.44
2018-04-19T11:28:15.768Z,8.38
2018-04-19T11:30:44.763Z,9.10
2018-04-19T11:33:15.157Z,8.95
2018-04-19T11:35:44.541Z,7.95
2018-04-19T11:38:14.320Z,8.53
2018-04-19T11:40:43.360Z,7.42
2018-04-19T11:43:13.268Z,7.76
2018-04-19T11:45:42.941Z,8.16
2018-04-19T11:48:16.020Z,9.70
2018-04-19T11:50:46.197Z,8.72
2018-04-19T11:53:15.506Z,9.32
2018-04-19T11:55:44.715Z,10.40
2018-04-19T11:58:13.585Z,10.53
2018-04-19T12:00:42.383Z,11.53
2018-04-19T12:03:11.833Z,11.98
2018-04-19T12:05:42.481Z,13.32
2018-04-19T12:08:11.741Z,12.90
2018-04-19T12:10:44.192Z,13.38
2018-04-19T12:13:13.220Z,14.10
2018-04-19T12:15:42.928Z,14.96
2018-04-19T12:18:12.433Z,14.89
2018-04-19T12:20:42.071Z,14.80
2018-04-19T12:23:11.946Z,14.25
2018-04-19T12:25:41.876Z,14.84
2018-04-19T12:28:11.433Z,15.17
2018-04-19T12:30:41.590Z,15.80
2018-04-19T12:33:11.620Z,16.38
2018-04-19T12:35:42.705Z,16.94
2018-04-19T12:38:12.404Z,16.33
2018-04-19T12:40:42.936Z,16.53
2018-04-19T12:43:12.776Z,16.59
2018-04-19T12:45:43.046Z,14.91
2018-04-19T12:48:13.101Z,15.41
2018-04-19T12:50:42.996Z,16.53
2018-04-19T12:53:12.684Z,16.42
2018-04-19T12:55:42.102Z,17.36
2018-04-19T12:58:11.717Z,15.79
2018-04-19T13:00:41.294Z,15.83
2018-04-19T13:03:12.305Z,16.82
2018-04-19T13:05:41.960Z,18.70
2018-04-19T13:08:11.704Z,17.60
2018-04-19T13:10:41.233Z,17.83
2018-04-19T13:13:11.623Z,17.50
2018-04-19T13:15:42.381Z,16.99
2018-04-19T13:18:12.827Z,18.22
2018-04-19T13:20:42.598Z,18.16
2018-04-19T13:23:12.518Z,18.58
2018-04-19T13:25:43.131Z,18.03
2018-04-19T13:28:12.714Z,18.05
2018-04-19T13:30:42.170Z,17.79
2018-04-19T13:33:11.774Z,18.51
2018-04-19T13:35:42.059Z,17.88
2018-04-19T13:38:11.729Z,18.17
2018-04-19T13:40:41.632Z,18.13
2018-04-19T13:43:39.036Z,18.03
2018-04-19T13:46:31.047Z,18.63
2018-04-19T13:48:59.615Z,18.04
2018-04-19T13:51:28.223Z,17.82
2018-04-19T13:53:56.662Z,17.51
2018-04-19T13:56:25.124Z,18.17
2018-04-19T13:58:57.096Z,18.11
2018-04-19T14:01:27.785Z,17.40
2018-04-19T14:04:18.919Z,17.52
2018-04-19T14:06:51.574Z,17.88
2018-04-19T14:09:20.131Z,17.87
2018-04-19T14:11:57.074Z,18.55
2018-04-19T14:14:27.587Z,18.74
2018-04-19T14:16:56.153Z,18.38
2018-04-19T14:19:25.054Z,18.53
2018-04-19T14:30:47.484Z,18.80
2018-04-19T14:33:16.983Z,18.74
2018-04-19T14:35:46.239Z,18.96
2018-04-19T14:38:15.456Z,18.33
2018-04-19T14:40:45.173Z,17.84
2018-04-19T14:43:17.488Z,18.58
2018-04-19T14:45:47.372Z,18.70
2018-04-19T14:48:17.627Z,18.93
2018-04-19T14:50:47.204Z,18.39
2018-04-19T14:53:22.162Z,18.96
2018-04-19T14:55:50.654Z,18.18
2018-04-19T14:58:20.256Z,18.24
2018-04-19T15:00:52.463Z,18.32
2018-04-19T15:03:20.946Z,17.74
2018-04-19T15:05:50.448Z,17.63
2018-04-19T15:08:18.998Z,17.54
2018-04-19T15:10:52.121Z,19.53
2018-04-19T15:13:20.513Z,19.28
2018-04-19T15:15:48.905Z,18.97
2018-04-19T15:18:19.636Z,18.56
2018-04-19T15:20:49.002Z,19.15
2018-04-19T15:27:29.519Z,17.65
2018-04-19T15:29:57.950Z,18.21
2018-04-19T15:32:26.463Z,17.80
2018-04-19T15:34:56.681Z,18.01
2018-04-19T15:40:45.580Z,19.58
2018-04-19T15:43:13.980Z,19.36
2018-04-19T15:45:42.378Z,19.54
2018-04-19T15:48:29.333Z,19.58
2018-04-19T15:56:46.270Z,19.52
2018-04-19T15:59:14.807Z,19.35
2018-04-19T16:01:43.221Z,19.49
2018-04-19T16:04:11.621Z,19.16
2018-04-19T16:06:40.078Z,19.21
2018-04-19T16:09:08.538Z,20.08
2018-04-19T16:11:36.921Z,20.07
2018-04-19T16:14:05.321Z,19.04
2018-04-19T16:16:34.524Z,19.67
2018-04-19T16:19:02.989Z,19.58
2018-04-19T16:21:31.388Z,18.76
2018-04-19T16:23:59.822Z,18.97
2018-04-19T16:26:28.234Z,19.22
2018-04-19T16:28:56.717Z,19.66
2018-04-19T16:31:25.080Z,19.26
2018-04-19T16:33:53.472Z,19.49
2018-04-19T16:36:21.942Z,19.60
2018-04-19T16:38:50.334Z,19.68
2018-04-19T16:41:18.757Z,19.12
2018-04-19T16:43:48.835Z,19.70
2018-04-19T16:46:32.577Z,19.88
2018-04-19T16:49:02.623Z,19.55
2018-04-19T16:51:31.072Z,20.04
2018-04-19T16:53:59.505Z,19.80
2018-04-19T16:56:27.886Z,20.14
2018-04-19T16:58:56.251Z,20.33
2018-04-19T17:01:24.645Z,20.20
2018-04-19T17:03:53.027Z,20.45
2018-04-19T17:06:21.522Z,19.89
2018-04-19T17:08:49.923Z,20.04
2018-04-19T17:11:18.305Z,20.29
2018-04-19T17:13:46.705Z,20.95
2018-04-19T17:16:15.135Z,20.33
2018-04-19T17:18:43.565Z,20.91
2018-04-19T17:21:12.079Z,20.75
2018-04-19T17:23:40.467Z,20.65
2018-04-19T17:26:08.885Z,20.45
2018-04-19T17:28:37.278Z,20.59
2018-04-19T17:31:05.669Z,20.54
2018-04-19T17:33:34.073Z,20.55
2018-04-19T17:36:02.450Z,20.64
2018-04-19T17:38:31.007Z,20.72
2018-04-19T17:40:59.399Z,21.34
2018-04-19T17:43:27.999Z,21.28
2018-04-19T17:45:56.380Z,21.61
2018-04-19T17:48:24.733Z,21.28
2018-04-19T17:50:56.821Z,21.70
2018-04-19T17:53:25.298Z,22.32
2018-04-19T17:55:53.699Z,23.77
2018-04-19T17:58:22.074Z,24.28
2018-04-19T18:00:50.442Z,24.46
2018-04-19T18:03:18.821Z,24.79
2018-04-19T18:05:47.296Z,25.31
2018-04-19T18:08:15.669Z,26.12
2018-04-19T18:10:44.074Z,27.72
2018-04-19T18:13:12.437Z,28.11
2018-04-19T18:15:40.921Z,29.97
2018-04-19T18:18:09.305Z,29.85
2018-04-19T18:20:37.790Z,29.83
2018-04-19T18:23:06.316Z,30.81
2018-04-19T18:25:34.714Z,30.98
2018-04-19T18:28:03.095Z,31.42
2018-04-19T18:30:31.458Z,31.69
2018-04-19T18:32:59.850Z,32.57
2018-04-19T18:35:28.309Z,32.62
2018-04-19T18:37:56.694Z,32.89
2018-04-19T18:40:25.065Z,32.88
2018-04-19T18:42:53.431Z,33.85
2018-04-19T18:45:21.854Z,33.37
2018-04-19T18:47:50.190Z,34.58
2018-04-19T18:50:18.563Z,34.34
2018-04-19T18:52:46.972Z,34.50
2018-04-19T18:55:15.425Z,34.98
2018-04-19T18:57:43.879Z,35.18
2018-04-19T19:00:12.256Z,35.59
2018-04-19T19:02:40.637Z,36.22
2018-04-19T19:05:09.108Z,35.14
2018-04-19T19:07:37.570Z,35.35
2018-04-19T19:10:06.312Z,35.52
2018-04-19T19:12:34.760Z,35.47
2018-04-19T19:15:03.167Z,35.68
2018-04-19T19:17:43.369Z,36.02
2018-04-19T19:20:13.570Z,36.81
2018-04-19T19:22:41.949Z,37.17
2018-04-19T19:25:10.350Z,36.78
2018-04-19T19:27:38.812Z,37.18
2018-04-19T19:30:07.216Z,37.53
2018-04-19T19:32:35.628Z,39.86
2018-04-19T19:35:04.148Z,40.20
2018-04-19T19:37:32.538Z,39.90
2018-04-19T19:40:01.266Z,40.78
2018-04-19T19:42:29.734Z,40.39
2018-04-19T19:44:58.113Z,40.32
2018-04-19T19:47:26.486Z,40.43
2018-04-19T19:49:54.841Z,41.57
2018-04-19T19:52:23.269Z,41.31
2018-04-19T19:54:51.780Z,41.27
2018-04-19T19:57:20.153Z,42.03
2018-04-19T19:59:48.512Z,41.54
2018-04-19T20:02:16.930Z,41.06
2018-04-19T20:04:45.384Z,42.03
2018-04-19T20:07:13.863Z,41.94
2018-04-19T20:09:42.236Z,42.07
2018-04-19T20:12:10.650Z,42.13
2018-04-19T20:14:38.979Z,43.18
2018-04-19T20:17:07.337Z,42.81
2018-04-19T20:19:35.707Z,43.53
2018-04-19T20:22:04.202Z,42.85
2018-04-19T20:24:32.604Z,43.19
2018-04-19T20:27:01.041Z,43.28
2018-04-19T20:29:29.428Z,43.19
2018-04-19T20:31:58.068Z,43.63
2018-04-19T20:34:26.653Z,43.91
2018-04-19T20:36:56.225Z,43.37
2018-04-19T20:39:24.614Z,43.28
2018-04-19T20:41:53.002Z,44.49
2018-04-19T20:44:21.428Z,45.16
2018-04-19T20:46:49.913Z,45.30
2018-04-19T20:49:18.320Z,45.29
2018-04-19T20:51:46.727Z,44.84
2018-04-19T20:54:15.104Z,45.39
2018-04-19T20:56:43.527Z,45.04
2018-04-19T20:59:14.847Z,44.91
2018-04-19T21:01:43.616Z,45.10
2018-04-19T21:04:12.675Z,46.04
2018-04-19T21:06:41.942Z,44.61
2018-04-19T21:09:11.003Z,45.25
2018-04-19T21:11:40.122Z,45.84
2018-04-19T21:14:08.764Z,46.40
2018-04-19T21:16:37.204Z,46.37
2018-04-19T21:19:05.585Z,46.72
2018-04-19T21:21:33.984Z,48.06
2018-04-19T21:24:02.390Z,47.25
2018-04-19T21:26:30.838Z,47.83
2018-04-19T21:28:59.245Z,47.08
2018-04-19T21:31:27.677Z,46.26
2018-04-19T21:33:56.110Z,47.05
2018-04-19T21:36:24.539Z,47.57
2018-04-19T21:38:53.116Z,48.45
2018-04-19T21:41:21.526Z,46.72
2018-04-19T21:43:49.917Z,47.85
2018-04-19T21:46:18.315Z,48.09
2018-04-19T21:48:46.692Z,47.80
2018-04-19T21:51:15.173Z,48.43
2018-04-19T21:53:44.199Z,48.17
2018-04-19T21:56:12.621Z,47.52
2018-04-19T21:58:41.004Z,47.90
2018-04-19T22:01:09.378Z,48.03
2018-04-19T22:03:37.748Z,48.62
2018-04-19T22:06:06.144Z,49.23
2018-04-19T22:08:34.537Z,48.35
2018-04-19T22:11:02.911Z,49.19
2018-04-19T22:13:31.300Z,48.67
2018-04-19T22:15:59.729Z,49.30
2018-04-19T22:18:28.189Z,48.44
2018-04-19T22:20:56.558Z,48.46
2018-04-19T22:23:24.931Z,49.82
2018-04-19T22:25:53.399Z,49.42
2018-04-19T22:28:21.825Z,50.10
2018-04-19T22:30:50.177Z,50.13
2018-04-19T22:33:18.536Z,50.44
2018-04-19T22:35:46.933Z,49.47
2018-04-19T22:38:15.297Z,49.23
2018-04-19T22:40:43.727Z,49.24
2018-04-19T22:43:12.106Z,49.60
2018-04-19T22:45:40.544Z,50.40
2018-04-19T22:48:09.032Z,51.00
2018-04-19T22:50:37.367Z,51.04
2018-04-19T22:53:05.801Z,50.34
2018-04-19T22:55:34.170Z,49.73
2018-04-19T22:58:02.609Z,50.17
2018-04-19T23:00:31.011Z,50.57
2018-04-19T23:02:59.419Z,50.58
2018-04-19T23:05:27.847Z,50.76
2018-04-19T23:07:56.225Z,50.25
2018-04-19T23:10:24.598Z,50.95
2018-04-19T23:12:53.065Z,51.25
2018-04-19T23:15:21.472Z,51.29
2018-04-19T23:17:49.992Z,50.97
2018-04-19T23:20:18.351Z,51.56
2018-04-19T23:22:46.702Z,52.06
2018-04-19T23:25:15.100Z,51.86
2018-04-19T23:27:43.471Z,51.43
2018-04-19T23:30:11.910Z,52.20
2018-04-19T23:32:40.278Z,52.73
2018-04-19T23:35:08.645Z,52.41
2018-04-19T23:37:37.007Z,52.69
2018-04-19T23:40:05.425Z,52.49
2018-04-19T23:42:33.796Z,52.22
2018-04-19T23:45:02.173Z,52.90
2018-04-19T23:47:31.132Z,52.55
2018-04-19T23:49:59.633Z,52.65
2018-04-19T23:52:28.041Z,52.62
2018-04-19T23:54:56.429Z,53.37
2018-04-19T23:57:24.790Z,52.71
2018-04-19T23:59:53.186Z,51.98
